createdAt,value
2018-05-26T00:01:50.789Z,16.43
2018-05-26T00:04:18.231Z,16.60
2018-05-26T00:06:46.436Z,17.27
2018-05-26T00:09:14.270Z,18.27
2018-05-26T00:11:42.486Z,16.67
2018-05-26T00:14:10.326Z,14.80
2018-05-26T00:16:38.528Z,16.10
2018-05-26T00:19:07.477Z,15.80
2018-05-26T00:21:34.929Z,21.60
2018-05-26T00:24:03.129Z,18.03
2018-05-26T00:26:30.579Z,18.00
2018-05-26T00:28:58.428Z,15.90
2018-05-26T00:31:26.641Z,15.57
2018-05-26T00:33:54.473Z,17.27
2018-05-26T00:36:22.323Z,16.20
2018-05-26T00:38:50.526Z,15.53
2018-05-26T00:41:18.379Z,15.93
2018-05-26T00:43:46.585Z,15.10
2018-05-26T00:46:14.029Z,19.60
2018-05-26T00:48:41.467Z,17.73
2018-05-26T00:51:09.697Z,21.53
2018-05-26T00:53:37.137Z,16.23
2018-05-26T00:56:04.577Z,15.77
2018-05-26T00:58:32.018Z,16.90
2018-05-26T01:00:59.475Z,20.57
2018-05-26T01:03:26.910Z,23.43
2018-05-26T01:05:55.130Z,21.00
2018-05-26T01:08:22.569Z,15.83
2018-05-26T01:10:50.021Z,18.10
2018-05-26T01:13:18.228Z,14.57
2018-05-26T01:15:45.680Z,18.37
2018-05-26T01:18:13.895Z,18.33
2018-05-26T01:20:41.353Z,19.37
2018-05-26T01:23:08.808Z,19.00
2018-05-26T01:25:37.600Z,16.33
2018-05-26T01:28:05.810Z,12.70
2018-05-26T01:30:33.263Z,17.43
2018-05-26T01:33:00.702Z,17.23
2018-05-26T01:35:28.145Z,19.70
2018-05-26T01:37:55.598Z,15.13
2018-05-26T01:40:23.042Z,17.87
2018-05-26T01:42:50.483Z,17.23
2018-05-26T01:45:18.684Z,13.30
2018-05-26T01:47:46.125Z,16.80
2018-05-26T01:50:13.558Z,17.50
2018-05-26T01:52:41.767Z,17.10
2018-05-26T01:55:09.201Z,16.30
2018-05-26T01:57:36.645Z,13.40
2018-05-26T02:00:04.077Z,19.23
2018-05-26T02:02:31.529Z,16.63
2018-05-26T02:04:58.961Z,16.00
2018-05-26T02:07:26.418Z,19.40
2018-05-26T02:09:53.853Z,21.43
2018-05-26T02:12:21.307Z,20.50
2018-05-26T02:14:48.764Z,23.30
2018-05-26T02:17:16.194Z,17.63
2018-05-26T02:19:43.646Z,20.80
2018-05-26T02:22:11.852Z,26.47
2018-05-26T02:24:39.303Z,18.90
2018-05-26T02:27:06.757Z,21.03
2018-05-26T02:29:34.955Z,19.83
2018-05-26T02:32:02.434Z,22.30
2018-05-26T02:34:30.622Z,17.40
2018-05-26T02:36:58.074Z,32.10
2018-05-26T02:39:25.509Z,18.20
2018-05-26T02:41:52.940Z,18.80
2018-05-26T02:44:20.375Z,20.50
2018-05-26T02:46:47.841Z,19.03
2018-05-26T02:49:16.040Z,21.10
2018-05-26T02:51:43.480Z,25.63
2018-05-26T02:54:11.683Z,20.10
2018-05-26T02:56:39.885Z,20.20
2018-05-26T02:59:07.317Z,20.73
2018-05-26T03:01:35.548Z,18.87
2018-05-26T03:04:02.497Z,18.30
2018-05-26T03:06:35.719Z,22.90
2018-05-26T03:09:08.813Z,18.37
2018-05-26T03:11:42.691Z,25.43
2018-05-26T03:14:16.520Z,20.37
2018-05-26T03:16:51.180Z,24.23
2018-05-26T03:19:19.398Z,25.73
2018-05-26T03:21:46.836Z,26.50
2018-05-26T03:24:14.278Z,21.60
2018-05-26T03:26:41.731Z,21.73
2018-05-26T03:29:09.936Z,19.77
2018-05-26T03:31:37.779Z,21.90
2018-05-26T03:34:05.605Z,24.37
2018-05-26T03:36:33.048Z,21.57
2018-05-26T03:39:01.248Z,23.67
2018-05-26T03:41:28.687Z,24.37
2018-05-26T03:43:56.892Z,25.07
2018-05-26T03:46:24.343Z,17.60
2018-05-26T03:48:52.544Z,24.43
2018-05-26T03:51:19.989Z,23.37
2018-05-26T03:53:48.197Z,24.73
2018-05-26T03:56:27.383Z,24.17
2018-05-26T03:59:06.645Z,22.43
2018-05-26T04:01:34.488Z,21.00
2018-05-26T04:04:01.922Z,23.70
2018-05-26T04:06:30.147Z,23.20
2018-05-26T04:08:57.972Z,23.83
2018-05-26T04:11:25.470Z,26.70
2018-05-26T04:13:52.856Z,23.37
2018-05-26T04:16:21.089Z,23.77
2018-05-26T04:18:49.295Z,22.10
2018-05-26T04:21:16.752Z,24.60
2018-05-26T04:23:44.958Z,18.03
2018-05-26T04:26:12.397Z,23.30
2018-05-26T04:28:40.615Z,19.43
2018-05-26T04:31:08.043Z,18.77
2018-05-26T04:33:36.269Z,21.10
2018-05-26T04:36:03.703Z,20.97
2018-05-26T04:38:31.901Z,25.33
2018-05-26T04:41:00.108Z,23.10
2018-05-26T04:43:27.545Z,23.37
2018-05-26T04:45:57.077Z,25.70
2018-05-26T04:48:25.259Z,22.30
2018-05-26T04:50:53.476Z,28.40
2018-05-26T04:53:20.916Z,22.33
2018-05-26T04:55:48.371Z,20.83
2018-05-26T04:58:16.576Z,25.60
2018-05-26T05:00:44.020Z,20.17
2018-05-26T05:03:12.236Z,24.97
2018-05-26T05:05:40.472Z,23.13
2018-05-26T05:08:08.317Z,26.07
2018-05-26T05:10:36.528Z,23.63
2018-05-26T05:13:03.967Z,24.63
2018-05-26T05:15:32.556Z,22.37
2018-05-26T05:18:00.774Z,23.33
2018-05-26T05:20:28.216Z,19.20
2018-05-26T05:22:55.664Z,27.07
2018-05-26T05:25:23.095Z,23.93
2018-05-26T05:27:50.537Z,26.97
2018-05-26T05:30:17.980Z,18.80
2018-05-26T05:32:45.420Z,21.80
2018-05-26T05:35:13.624Z,16.47
2018-05-26T05:37:41.065Z,19.70
2018-05-26T05:40:09.265Z,25.40
2018-05-26T05:42:37.108Z,17.93
2018-05-26T05:45:04.945Z,19.10
2018-05-26T05:47:32.396Z,15.80
2018-05-26T05:49:59.833Z,17.67
2018-05-26T05:52:28.048Z,24.43
2018-05-26T05:54:55.479Z,19.30
2018-05-26T05:57:24.059Z,13.13
2018-05-26T05:59:51.488Z,16.00
2018-05-26T06:02:19.693Z,12.90
2018-05-26T06:04:47.128Z,14.03
2018-05-26T06:07:14.964Z,12.07
2018-05-26T06:09:42.402Z,10.60
2018-05-26T06:12:10.612Z,11.33
2018-05-26T06:14:38.068Z,15.30
2018-05-26T06:17:05.514Z,12.50
2018-05-26T06:19:33.704Z,14.20
2018-05-26T06:22:01.138Z,9.87
2018-05-26T06:24:28.579Z,12.43
2018-05-26T06:26:56.798Z,9.57
2018-05-26T06:29:24.226Z,11.03
2018-05-26T06:31:51.765Z,11.00
2018-05-26T06:34:19.100Z,9.10
2018-05-26T06:36:46.541Z,9.13
2018-05-26T06:39:14.374Z,11.30
2018-05-26T06:41:41.813Z,9.13
2018-05-26T06:44:09.250Z,9.17
2018-05-26T06:46:37.464Z,11.50
2018-05-26T06:49:04.904Z,8.80
2018-05-26T06:51:33.836Z,9.53
2018-05-26T06:54:01.673Z,9.00
2018-05-26T06:56:29.118Z,8.17
2018-05-26T06:58:56.544Z,9.27
2018-05-26T07:01:23.976Z,9.70
2018-05-26T07:03:51.408Z,8.83
2018-05-26T07:06:18.840Z,11.50
2018-05-26T07:08:46.271Z,8.13
2018-05-26T07:11:13.712Z,9.03
2018-05-26T07:13:41.912Z,9.20
2018-05-26T07:16:09.352Z,9.80
2018-05-26T07:18:36.785Z,8.00
2018-05-26T07:21:04.976Z,8.90
2018-05-26T07:23:32.812Z,9.50
2018-05-26T07:26:01.014Z,7.60
2018-05-26T07:28:28.840Z,7.97
2018-05-26T07:30:57.041Z,8.80
2018-05-26T07:33:24.872Z,8.40
2018-05-26T07:35:52.328Z,7.07
2018-05-26T07:38:20.535Z,7.77
2018-05-26T07:40:47.992Z,8.63
2018-05-26T07:43:16.199Z,6.83
2018-05-26T07:45:43.624Z,6.97
2018-05-26T07:48:11.068Z,7.47
2018-05-26T07:50:38.515Z,7.80
2018-05-26T07:53:05.992Z,7.63
2018-05-26T07:55:34.139Z,7.13
2018-05-26T07:58:01.581Z,9.03
2018-05-26T08:00:29.025Z,7.17
2018-05-26T08:02:57.224Z,6.70
2018-05-26T08:05:25.072Z,6.20
2018-05-26T08:07:53.251Z,7.47
2018-05-26T08:10:21.460Z,6.30
2018-05-26T08:12:50.230Z,6.00
2018-05-26T08:15:17.675Z,5.63
2018-05-26T08:17:45.122Z,6.07
2018-05-26T08:20:14.065Z,6.03
2018-05-26T08:22:41.514Z,6.83
2018-05-26T08:25:10.088Z,5.87
2018-05-26T08:27:37.520Z,6.17
2018-05-26T08:30:04.952Z,6.70
2018-05-26T08:32:32.383Z,6.57
2018-05-26T08:34:59.813Z,5.60
2018-05-26T08:37:27.249Z,5.80
2018-05-26T08:39:55.067Z,6.17
2018-05-26T08:42:23.280Z,7.03
2018-05-26T08:44:51.484Z,5.30
2018-05-26T08:47:19.684Z,5.20
2018-05-26T08:49:47.125Z,5.30
2018-05-26T08:52:15.328Z,5.03
2018-05-26T08:54:42.758Z,5.70
2018-05-26T08:57:10.187Z,6.83
2018-05-26T08:59:37.659Z,5.43
2018-05-26T09:02:05.091Z,6.10
2018-05-26T09:04:33.294Z,4.70
2018-05-26T09:07:00.748Z,5.77
2018-05-26T09:09:28.943Z,4.47
2018-05-26T09:11:57.152Z,4.60
2018-05-26T09:14:24.591Z,4.80
2018-05-26T09:16:52.798Z,5.07
2018-05-26T09:19:20.987Z,4.93
2018-05-26T09:21:49.248Z,5.00
2018-05-26T09:24:17.068Z,5.57
2018-05-26T09:26:44.913Z,7.53
2018-05-26T09:29:12.359Z,5.30
2018-05-26T09:31:40.551Z,4.67
2018-05-26T09:34:08.750Z,4.80
2018-05-26T09:36:36.184Z,4.40
2018-05-26T09:39:03.641Z,4.57
2018-05-26T09:41:31.094Z,4.40
2018-05-26T09:43:58.919Z,3.30
2018-05-26T09:46:27.124Z,4.67
2018-05-26T09:48:54.552Z,4.17
2018-05-26T09:51:21.993Z,3.80
2018-05-26T09:53:49.420Z,4.47
2018-05-26T09:56:16.855Z,4.13
2018-05-26T09:58:45.052Z,3.80
2018-05-26T10:01:13.248Z,4.17
2018-05-26T10:03:40.683Z,4.23
2018-05-26T10:06:08.525Z,3.83
2018-05-26T10:08:35.961Z,4.00
2018-05-26T10:11:03.391Z,4.10
2018-05-26T10:13:30.882Z,6.77
2018-05-26T10:15:58.268Z,3.70
2018-05-26T10:18:25.691Z,3.63
2018-05-26T10:20:53.129Z,3.50
2018-05-26T10:23:20.585Z,3.80
2018-05-26T10:25:48.017Z,5.17
2018-05-26T10:28:16.231Z,3.90
2018-05-26T10:30:43.657Z,3.70
2018-05-26T10:33:11.089Z,3.90
2018-05-26T10:35:38.564Z,4.00
2018-05-26T10:38:06.040Z,3.63
2018-05-26T10:40:34.169Z,3.10
2018-05-26T10:43:01.601Z,4.27
2018-05-26T10:45:38.799Z,4.07
2018-05-26T10:48:06.242Z,3.83
2018-05-26T10:50:33.676Z,4.40
2018-05-26T10:53:01.131Z,3.13
2018-05-26T10:55:29.331Z,3.40
2018-05-26T10:57:56.781Z,4.13
2018-05-26T11:00:24.976Z,3.47
2018-05-26T11:02:52.804Z,3.47
2018-05-26T11:05:20.262Z,3.40
2018-05-26T11:07:47.688Z,3.63
2018-05-26T11:10:15.905Z,2.87
2018-05-26T11:12:43.349Z,2.67
2018-05-26T11:15:10.778Z,3.07
2018-05-26T11:17:38.611Z,3.00
2018-05-26T11:20:06.041Z,3.33
2018-05-26T11:22:34.236Z,3.30
2018-05-26T11:25:01.669Z,3.70
2018-05-26T11:27:29.513Z,2.60
2018-05-26T11:29:56.944Z,3.73
2018-05-26T11:32:25.163Z,2.93
2018-05-26T11:34:52.605Z,3.10
2018-05-26T11:37:20.445Z,3.53
2018-05-26T11:39:47.860Z,3.57
2018-05-26T11:42:15.692Z,3.20
2018-05-26T11:44:43.675Z,3.67
2018-05-26T11:47:11.881Z,2.90
2018-05-26T11:49:40.109Z,2.53
2018-05-26T11:52:07.540Z,4.03
2018-05-26T11:54:34.964Z,2.40
2018-05-26T11:57:03.949Z,6.07
2018-05-26T11:59:32.529Z,2.80
2018-05-26T12:02:00.425Z,3.60
2018-05-26T12:04:27.950Z,3.20
2018-05-26T12:06:55.391Z,3.20
2018-05-26T12:09:23.588Z,3.00
2018-05-26T12:11:51.784Z,2.63
2018-05-26T12:14:20.008Z,2.87
2018-05-26T12:16:47.563Z,3.00
2018-05-26T12:19:15.376Z,3.40
2018-05-26T12:21:42.812Z,4.10
2018-05-26T12:24:10.245Z,2.90
2018-05-26T12:26:39.184Z,2.47
2018-05-26T12:29:06.619Z,3.10
2018-05-26T12:31:35.411Z,2.70
2018-05-26T12:34:04.208Z,3.10
2018-05-26T12:36:33.005Z,3.73
2018-05-26T12:39:00.440Z,2.87
2018-05-26T12:41:27.876Z,2.40
2018-05-26T12:43:56.093Z,3.00
2018-05-26T12:46:23.935Z,3.20
2018-05-26T12:48:51.370Z,2.90
2018-05-26T12:51:20.151Z,2.60
2018-05-26T12:53:49.036Z,7.33
2018-05-26T12:56:16.477Z,2.57
2018-05-26T12:58:44.313Z,2.90
2018-05-26T13:01:12.534Z,2.20
2018-05-26T13:03:39.972Z,2.57
2018-05-26T13:06:08.248Z,5.03
2018-05-26T13:08:35.657Z,2.83
2018-05-26T13:11:03.094Z,2.37
2018-05-26T13:13:31.287Z,2.28
2018-05-26T13:15:59.497Z,2.57
2018-05-26T13:18:27.370Z,2.23
2018-05-26T13:20:55.192Z,2.40
2018-05-26T13:23:24.062Z,2.70
2018-05-26T13:25:52.252Z,2.20
2018-05-26T13:28:19.687Z,2.87
2018-05-26T13:30:47.121Z,2.20
2018-05-26T13:33:14.557Z,2.83
2018-05-26T13:35:42.000Z,2.73
2018-05-26T13:38:10.783Z,5.13
2018-05-26T13:40:38.621Z,3.10
2018-05-26T13:43:06.057Z,2.67
2018-05-26T13:45:33.501Z,2.80
2018-05-26T13:48:00.933Z,5.13
2018-05-26T13:50:29.520Z,2.60
2018-05-26T13:52:56.950Z,2.70
2018-05-26T13:55:24.411Z,3.10
2018-05-26T13:57:52.586Z,3.60
2018-05-26T14:00:20.021Z,3.50
2018-05-26T14:02:47.455Z,3.23
2018-05-26T14:05:15.668Z,2.30
2018-05-26T14:07:43.105Z,2.73
2018-05-26T14:10:11.296Z,6.97
2018-05-26T14:12:38.732Z,3.27
2018-05-26T14:15:06.160Z,4.10
2018-05-26T14:17:33.615Z,3.87
2018-05-26T14:20:01.060Z,3.33
2018-05-26T14:22:28.908Z,7.53
2018-05-26T14:24:56.355Z,4.17
2018-05-26T14:27:24.568Z,5.03
2018-05-26T14:29:52.400Z,2.90
2018-05-26T14:32:20.961Z,2.77
2018-05-26T14:34:48.405Z,2.83
2018-05-26T14:37:15.839Z,2.83
2018-05-26T14:39:43.264Z,4.80
2018-05-26T14:42:10.754Z,2.53
2018-05-26T14:44:38.147Z,2.33
2018-05-26T14:47:05.983Z,2.67
2018-05-26T14:49:34.188Z,3.47
2018-05-26T14:52:01.636Z,2.53
2018-05-26T14:54:29.071Z,3.50
2018-05-26T14:56:56.500Z,2.83
2018-05-26T14:59:23.927Z,4.20
2018-05-26T15:01:51.381Z,2.70
2018-05-26T15:04:18.810Z,2.20
2018-05-26T15:06:47.749Z,3.13
2018-05-26T15:09:15.183Z,3.13
2018-05-26T15:11:43.385Z,2.70
2018-05-26T15:14:10.868Z,3.20
2018-05-26T15:16:38.296Z,3.30
2018-05-26T15:19:06.860Z,3.20
2018-05-26T15:21:34.398Z,3.07
2018-05-26T15:24:01.850Z,3.90
2018-05-26T15:26:29.828Z,3.13
2018-05-26T15:28:58.044Z,3.30
2018-05-26T15:31:25.484Z,2.90
2018-05-26T15:33:52.919Z,2.73
2018-05-26T15:36:20.366Z,2.73
2018-05-26T15:38:47.788Z,3.20
2018-05-26T15:41:15.244Z,2.90
2018-05-26T15:43:43.461Z,3.50
2018-05-26T15:46:11.669Z,3.40
2018-05-26T15:48:39.096Z,2.60
2018-05-26T15:51:06.547Z,2.67
2018-05-26T15:53:34.735Z,2.53
2018-05-26T15:56:02.586Z,2.90
2018-05-26T15:58:30.044Z,3.00
2018-05-26T16:00:58.623Z,2.80
2018-05-26T16:03:26.077Z,3.17
2018-05-26T16:05:54.275Z,2.70
2018-05-26T16:08:22.844Z,3.67
2018-05-26T16:10:50.285Z,3.67
2018-05-26T16:13:18.476Z,3.30
2018-05-26T16:15:46.675Z,3.60
2018-05-26T16:18:14.107Z,3.40
2018-05-26T16:20:41.573Z,3.87
2018-05-26T16:23:08.978Z,3.13
2018-05-26T16:25:36.828Z,3.10
2018-05-26T16:28:05.035Z,3.27
2018-05-26T16:30:33.237Z,3.20
2018-05-26T16:33:00.682Z,3.10
2018-05-26T16:35:28.886Z,2.90
2018-05-26T16:37:56.721Z,2.80
2018-05-26T16:40:24.157Z,2.80
2018-05-26T16:42:51.580Z,3.23
2018-05-26T16:45:19.056Z,3.47
2018-05-26T16:47:46.460Z,3.90
2018-05-26T16:50:14.340Z,3.27
2018-05-26T16:52:41.775Z,3.47
2018-05-26T16:55:09.201Z,3.07
2018-05-26T16:57:36.645Z,3.30
2018-05-26T17:00:04.069Z,3.87
2018-05-26T17:02:32.276Z,3.30
2018-05-26T17:04:59.711Z,3.20
2018-05-26T17:07:28.660Z,5.20
2018-05-26T17:09:56.097Z,3.90
2018-05-26T17:12:23.557Z,3.90
2018-05-26T17:14:51.015Z,3.60
2018-05-26T17:17:19.263Z,3.70
2018-05-26T17:19:47.470Z,3.70
2018-05-26T17:22:14.979Z,3.57
2018-05-26T17:24:42.415Z,4.70
2018-05-26T17:27:09.841Z,3.73
2018-05-26T17:29:37.351Z,3.40
2018-05-26T17:32:04.775Z,5.80
2018-05-26T17:34:32.625Z,4.13
2018-05-26T17:37:00.828Z,3.90
2018-05-26T17:39:28.266Z,4.13
2018-05-26T17:41:56.469Z,4.00
2018-05-26T17:44:23.901Z,3.57
2018-05-26T17:46:52.100Z,3.80
2018-05-26T17:49:20.289Z,4.20
2018-05-26T17:51:48.503Z,4.50
2018-05-26T17:54:15.948Z,6.00
2018-05-26T17:56:43.772Z,3.30
2018-05-26T17:59:12.812Z,6.10
2018-05-26T18:01:41.017Z,4.33
2018-05-26T18:04:08.457Z,7.03
2018-05-26T18:06:37.036Z,3.87
2018-05-26T18:09:05.813Z,4.60
2018-05-26T18:11:33.260Z,4.50
2018-05-26T18:14:01.448Z,4.27
2018-05-26T18:16:28.900Z,4.30
2018-05-26T18:18:56.723Z,5.63
2018-05-26T18:21:24.180Z,6.37
2018-05-26T19:48:48.748Z,5.53
2018-05-26T19:51:17.344Z,6.70
2018-05-26T19:53:44.775Z,6.00
2018-05-26T19:56:12.237Z,6.20
2018-05-26T19:58:39.662Z,5.60
2018-05-26T20:01:07.869Z,5.63
2018-05-26T20:03:35.313Z,6.20
2018-05-26T20:06:03.550Z,9.33
2018-05-26T20:08:30.964Z,6.53
2018-05-26T20:10:59.908Z,8.00
2018-05-26T20:13:28.485Z,9.27
2018-05-26T20:15:55.920Z,6.33
2018-05-26T20:18:24.117Z,5.30
2018-05-26T20:20:52.321Z,5.60
2018-05-26T20:23:20.519Z,7.37
2018-05-26T20:25:47.953Z,7.50
2018-05-26T20:28:16.145Z,6.83
2018-05-26T20:30:44.339Z,6.67
2018-05-26T20:33:11.780Z,6.87
2018-05-26T20:35:39.229Z,6.60
2018-05-26T20:38:06.661Z,6.97
2018-05-26T20:40:34.116Z,10.50
2018-05-26T20:43:02.297Z,11.43
2018-05-26T20:45:29.736Z,9.30
2018-05-26T20:47:57.171Z,7.23
2018-05-26T20:50:24.608Z,7.10
2018-05-26T20:52:52.052Z,9.33
2018-05-26T20:55:20.624Z,7.93
2018-05-26T20:57:48.453Z,7.30
2018-05-26T21:00:15.889Z,8.10
2018-05-26T21:02:44.096Z,6.93
2018-05-26T21:05:11.520Z,8.43
2018-05-26T21:07:38.959Z,7.80
2018-05-26T21:10:06.418Z,11.17
2018-05-26T21:12:35.000Z,7.33
2018-05-26T21:15:02.433Z,9.30
2018-05-26T21:17:30.338Z,8.33
2018-05-26T21:19:58.515Z,7.80
2018-05-26T21:22:25.951Z,13.13
2018-05-26T21:24:54.160Z,13.20
2018-05-26T21:27:21.604Z,9.37
2018-05-26T21:29:49.044Z,9.10
2018-05-26T21:32:17.618Z,9.17
2018-05-26T21:34:45.074Z,8.87
2018-05-26T21:37:12.515Z,10.03
2018-05-26T21:39:40.703Z,9.70
2018-05-26T21:42:08.911Z,9.33
2018-05-26T21:44:36.378Z,8.43
2018-05-26T21:47:04.565Z,20.63
2018-05-26T21:49:32.849Z,9.63
2018-05-26T21:52:00.288Z,10.17
2018-05-26T21:54:28.488Z,7.53
2018-05-26T21:56:57.268Z,9.73
2018-05-26T21:59:25.097Z,8.00
2018-05-26T22:01:52.931Z,12.30
2018-05-26T22:04:21.712Z,13.30
2018-05-26T22:06:49.548Z,7.17
2018-05-26T22:09:16.986Z,7.70
2018-05-26T22:11:45.177Z,7.23
2018-05-26T22:14:12.619Z,7.53
2018-05-26T22:16:40.057Z,9.07
2018-05-26T22:19:07.472Z,7.57
2018-05-26T22:21:34.905Z,9.40
2018-05-26T22:24:03.853Z,12.37
2018-05-26T22:26:31.292Z,8.13
2018-05-26T22:29:00.223Z,8.00
2018-05-26T22:31:28.432Z,8.53
2018-05-26T22:33:55.852Z,7.73
2018-05-26T22:36:24.793Z,7.27
2018-05-26T22:38:52.215Z,8.53
2018-05-26T22:41:21.156Z,14.70
2018-05-26T22:43:49.359Z,7.13
2018-05-26T22:46:16.820Z,11.90
2018-05-26T22:48:44.640Z,7.77
2018-05-26T22:51:12.079Z,7.93
2018-05-26T22:53:39.512Z,6.30
2018-05-26T22:56:06.962Z,7.83
2018-05-26T22:58:35.900Z,9.83
2018-05-26T23:01:03.324Z,8.10
2018-05-26T23:03:31.516Z,9.10
2018-05-26T23:06:00.448Z,8.00
2018-05-26T23:08:27.879Z,7.77
2018-05-26T23:10:56.076Z,8.73
2018-05-26T23:13:25.019Z,7.40
2018-05-26T23:15:52.443Z,7.70
2018-05-26T23:18:19.878Z,7.93
2018-05-26T23:20:47.317Z,10.60
2018-05-26T23:23:16.104Z,7.53
2018-05-26T23:25:43.927Z,8.83
2018-05-26T23:28:11.367Z,17.50
2018-05-26T23:30:38.804Z,11.83
2018-05-26T23:33:06.628Z,11.33
2018-05-26T23:35:34.069Z,12.53
2018-05-26T23:38:01.516Z,11.37
2018-05-26T23:40:28.959Z,10.33
2018-05-26T23:42:57.521Z,8.63
2018-05-26T23:45:24.971Z,13.73
2018-05-26T23:47:52.397Z,10.17
2018-05-26T23:50:19.840Z,11.10
2018-05-26T23:52:47.681Z,10.27
2018-05-26T23:55:15.113Z,12.23
2018-05-26T23:57:43.903Z,11.60
